sensor_id;sensor_type;location;lat;lon;timestamp;pressure;altitude;pressure_sealevel;temperature;humidity
64200;BME280;50516;52.272;5.136;2023-09-19T00:00:19;100626.81;;;15.62;87.95
64200;BME280;50516;52.272;5.136;2023-09-19T00:02:58;100635.94;;;15.62;88.29
64200;BME280;50516;52.272;5.136;2023-09-19T00:05:27;100632.66;;;15.60;88.28
64200;BME280;50516;52.272;5.136;2023-09-19T00:07:54;100634.44;;;15.42;89.38
64200;BME280;50516;52.272;5.136;2023-09-19T00:10:23;100639.88;;;15.47;88.85
64200;BME280;50516;52.272;5.136;2023-09-19T00:12:53;100637.97;;;15.57;88.73
64200;BME280;50516;52.272;5.136;2023-09-19T00:15:20;100639.63;;;15.58;88.31
64200;BME280;50516;52.272;5.136;2023-09-19T00:17:46;100646.81;;;15.59;88.67
64200;BME280;50516;52.272;5.136;2023-09-19T00:20:13;100644.53;;;15.61;89.23
64200;BME280;50516;52.272;5.136;2023-09-19T00:22:41;100652.84;;;15.61;88.21
64200;BME280;50516;52.272;5.136;2023-09-19T00:25:10;100656.03;;;15.54;88.93
64200;BME280;50516;52.272;5.136;2023-09-19T00:27:38;100648.34;;;15.51;88.87
64200;BME280;50516;52.272;5.136;2023-09-19T00:30:12;100648.66;;;15.49;88.80
64200;BME280;50516;52.272;5.136;2023-09-19T00:32:47;100658.38;;;15.61;88.51
64200;BME280;50516;52.272;5.136;2023-09-19T00:35:16;100652.66;;;15.57;88.85
64200;BME280;50516;52.272;5.136;2023-09-19T00:37:41;100662.19;;;15.37;89.03
64200;BME280;50516;52.272;5.136;2023-09-19T00:40:08;100659.84;;;15.44;89.03
64200;BME280;50516;52.272;5.136;2023-09-19T00:42:41;100664.47;;;15.49;88.95
64200;BME280;50516;52.272;5.136;2023-09-19T00:45:08;100656.59;;;15.42;89.20
64200;BME280;50516;52.272;5.136;2023-09-19T00:47:36;100660.97;;;15.43;89.21
64200;BME280;50516;52.272;5.136;2023-09-19T00:50:04;100656.97;;;15.49;89.28
64200;BME280;50516;52.272;5.136;2023-09-19T00:52:34;100667.22;;;15.49;89.18
64200;BME280;50516;52.272;5.136;2023-09-19T00:55:02;100679.81;;;15.55;89.14
64200;BME280;50516;52.272;5.136;2023-09-19T00:57:28;100671.53;;;15.55;89.02
64200;BME280;50516;52.272;5.136;2023-09-19T00:59:58;100678.50;;;15.39;88.84
64200;BME280;50516;52.272;5.136;2023-09-19T01:02:24;100681.56;;;15.51;89.13
64200;BME280;50516;52.272;5.136;2023-09-19T01:04:52;100679.59;;;15.51;88.75
64200;BME280;50516;52.272;5.136;2023-09-19T01:07:18;100677.06;;;15.55;88.64
64200;BME280;50516;52.272;5.136;2023-09-19T01:09:44;100673.81;;;15.39;89.47
64200;BME280;50516;52.272;5.136;2023-09-19T01:12:10;100675.84;;;15.47;88.44
64200;BME280;50516;52.272;5.136;2023-09-19T01:14:59;100676.66;;;15.34;88.47
64200;BME280;50516;52.272;5.136;2023-09-19T01:17:35;100674.81;;;15.43;89.28
64200;BME280;50516;52.272;5.136;2023-09-19T01:20:10;100678.72;;;15.42;88.90
64200;BME280;50516;52.272;5.136;2023-09-19T01:22:56;100675.72;;;15.52;88.57
64200;BME280;50516;52.272;5.136;2023-09-19T01:28:30;100679.09;;;15.49;88.72
64200;BME280;50516;52.272;5.136;2023-09-19T01:31:02;100677.88;;;15.56;88.54
64200;BME280;50516;52.272;5.136;2023-09-19T01:33:28;100667.81;;;15.60;88.60
64200;BME280;50516;52.272;5.136;2023-09-19T01:35:59;100671.91;;;15.62;88.81
64200;BME280;50516;52.272;5.136;2023-09-19T01:38:24;100670.16;;;15.66;88.69
64200;BME280;50516;52.272;5.136;2023-09-19T01:41:01;100679.78;;;15.69;88.54
64200;BME280;50516;52.272;5.136;2023-09-19T01:43:42;100698.78;;;15.62;88.16
64200;BME280;50516;52.272;5.136;2023-09-19T01:46:19;100689.00;;;15.64;89.13
64200;BME280;50516;52.272;5.136;2023-09-19T01:48:57;100700.38;;;15.63;88.54
64200;BME280;50516;52.272;5.136;2023-09-19T01:51:44;100691.41;;;15.57;88.28
64200;BME280;50516;52.272;5.136;2023-09-19T01:54:12;100690.38;;;15.53;88.24
64200;BME280;50516;52.272;5.136;2023-09-19T01:56:48;100685.13;;;15.51;88.75
64200;BME280;50516;52.272;5.136;2023-09-19T01:59:25;100687.91;;;15.51;88.63
64200;BME280;50516;52.272;5.136;2023-09-19T02:01:53;100677.88;;;15.42;90.04
64200;BME280;50516;52.272;5.136;2023-09-19T02:04:19;100671.31;;;15.51;89.25
64200;BME280;50516;52.272;5.136;2023-09-19T02:06:44;100666.19;;;15.45;88.20
64200;BME280;50516;52.272;5.136;2023-09-19T02:09:13;100663.22;;;15.27;87.99
64200;BME280;50516;52.272;5.136;2023-09-19T02:11:39;100669.50;;;15.33;88.18
64200;BME280;50516;52.272;5.136;2023-09-19T02:14:04;100675.22;;;15.23;88.19
64200;BME280;50516;52.272;5.136;2023-09-19T02:16:33;100681.78;;;15.27;88.49
64200;BME280;50516;52.272;5.136;2023-09-19T02:18:59;100688.34;;;15.31;88.02
64200;BME280;50516;52.272;5.136;2023-09-19T02:21:25;100674.81;;;15.43;87.91
64200;BME280;50516;52.272;5.136;2023-09-19T02:23:50;100685.28;;;15.32;89.10
64200;BME280;50516;52.272;5.136;2023-09-19T02:26:16;100684.06;;;15.25;89.12
64200;BME280;50516;52.272;5.136;2023-09-19T02:28:44;100684.97;;;15.20;88.60
64200;BME280;50516;52.272;5.136;2023-09-19T02:31:11;100681.78;;;15.27;88.71
64200;BME280;50516;52.272;5.136;2023-09-19T02:33:36;100690.38;;;15.25;89.05
64200;BME280;50516;52.272;5.136;2023-09-19T02:36:02;100685.06;;;15.29;88.60
64200;BME280;50516;52.272;5.136;2023-09-19T02:38:30;100692.03;;;15.26;88.52
64200;BME280;50516;52.272;5.136;2023-09-19T02:40:56;100697.97;;;15.33;89.18
64200;BME280;50516;52.272;5.136;2023-09-19T02:43:22;100695.13;;;15.25;89.15
64200;BME280;50516;52.272;5.136;2023-09-19T02:45:50;100700.44;;;15.21;89.05
64200;BME280;50516;52.272;5.136;2023-09-19T02:48:16;100695.72;;;15.22;89.25
64200;BME280;50516;52.272;5.136;2023-09-19T02:50:45;100702.06;;;15.36;88.52
64200;BME280;50516;52.272;5.136;2023-09-19T02:53:11;100701.03;;;15.32;88.79
64200;BME280;50516;52.272;5.136;2023-09-19T02:55:38;100708.72;;;15.35;89.16
64200;BME280;50516;52.272;5.136;2023-09-19T02:58:06;100696.00;;;15.34;89.46
64200;BME280;50516;52.272;5.136;2023-09-19T03:00:33;100695.81;;;15.30;88.50
64200;BME280;50516;52.272;5.136;2023-09-19T03:02:59;100690.28;;;15.30;89.39
64200;BME280;50516;52.272;5.136;2023-09-19T03:05:24;100682.63;;;15.13;89.60
64200;BME280;50516;52.272;5.136;2023-09-19T03:07:50;100678.31;;;15.07;90.06
64200;BME280;50516;52.272;5.136;2023-09-19T03:10:20;100685.47;;;15.22;89.31
64200;BME280;50516;52.272;5.136;2023-09-19T03:12:46;100678.72;;;15.14;89.51
64200;BME280;50516;52.272;5.136;2023-09-19T03:15:11;100671.75;;;15.03;89.87
64200;BME280;50516;52.272;5.136;2023-09-19T03:17:37;100683.63;;;15.18;90.16
64200;BME280;50516;52.272;5.136;2023-09-19T03:20:03;100677.91;;;15.14;89.49
64200;BME280;50516;52.272;5.136;2023-09-19T03:22:34;100678.41;;;15.16;89.75
64200;BME280;50516;52.272;5.136;2023-09-19T03:24:59;100680.75;;;15.23;90.28
64200;BME280;50516;52.272;5.136;2023-09-19T03:27:25;100683.44;;;15.14;90.18
64200;BME280;50516;52.272;5.136;2023-09-19T03:29:52;100669.41;;;15.10;89.29
64200;BME280;50516;52.272;5.136;2023-09-19T03:32:17;100679.13;;;15.08;88.93
64200;BME280;50516;52.272;5.136;2023-09-19T03:34:42;100673.28;;;15.09;89.63
64200;BME280;50516;52.272;5.136;2023-09-19T03:37:11;100673.09;;;15.20;89.81
64200;BME280;50516;52.272;5.136;2023-09-19T03:39:36;100680.13;;;15.26;89.97
64200;BME280;50516;52.272;5.136;2023-09-19T03:42:02;100678.31;;;15.07;89.50
64200;BME280;50516;52.272;5.136;2023-09-19T03:44:29;100684.66;;;14.94;90.04
64200;BME280;50516;52.272;5.136;2023-09-19T03:46:54;100686.59;;;15.07;90.20
64200;BME280;50516;52.272;5.136;2023-09-19T03:49:21;100683.22;;;15.10;89.76
64200;BME280;50516;52.272;5.136;2023-09-19T03:51:46;100686.28;;;15.09;90.00
64200;BME280;50516;52.272;5.136;2023-09-19T03:54:12;100691.31;;;15.07;90.04
64200;BME280;50516;52.272;5.136;2023-09-19T03:56:37;100691.63;;;15.05;90.20
64200;BME280;50516;52.272;5.136;2023-09-19T03:59:03;100697.75;;;14.88;90.92
64200;BME280;50516;52.272;5.136;2023-09-19T04:01:28;100707.28;;;14.96;91.63
64200;BME280;50516;52.272;5.136;2023-09-19T04:03:56;100702.16;;;15.03;91.68
64200;BME280;50516;52.272;5.136;2023-09-19T04:06:22;100695.50;;;15.04;91.09
64200;BME280;50516;52.272;5.136;2023-09-19T04:08:47;100701.66;;;15.01;90.71
64200;BME280;50516;52.272;5.136;2023-09-19T04:11:14;100702.06;;;14.94;91.48
64200;BME280;50516;52.272;5.136;2023-09-19T04:13:39;100715.03;;;14.80;91.46
64200;BME280;50516;52.272;5.136;2023-09-19T04:16:05;100723.41;;;14.75;91.96
64200;BME280;50516;52.272;5.136;2023-09-19T04:18:32;100720.44;;;14.71;91.93
64200;BME280;50516;52.272;5.136;2023-09-19T04:20:58;100727.44;;;14.83;92.08
64200;BME280;50516;52.272;5.136;2023-09-19T04:23:24;100731.81;;;14.84;91.89
64200;BME280;50516;52.272;5.136;2023-09-19T04:25:50;100731.81;;;14.70;92.02
64200;BME280;50516;52.272;5.136;2023-09-19T04:28:15;100725.53;;;14.64;91.83
64200;BME280;50516;52.272;5.136;2023-09-19T04:30:41;100727.78;;;14.62;92.87
64200;BME280;50516;52.272;5.136;2023-09-19T04:33:06;100748.38;;;14.70;92.62
64200;BME280;50516;52.272;5.136;2023-09-19T04:35:32;100741.50;;;14.67;92.42
64200;BME280;50516;52.272;5.136;2023-09-19T04:37:57;100731.66;;;14.61;92.29
64200;BME280;50516;52.272;5.136;2023-09-19T04:40:22;100733.38;;;14.57;93.13
64200;BME280;50516;52.272;5.136;2023-09-19T04:42:56;100734.31;;;14.66;93.11
64200;BME280;50516;52.272;5.136;2023-09-19T04:45:22;100738.34;;;14.55;92.75
64200;BME280;50516;52.272;5.136;2023-09-19T04:47:48;100727.09;;;14.51;93.07
64200;BME280;50516;52.272;5.136;2023-09-19T04:50:13;100724.50;;;14.60;93.01
64200;BME280;50516;52.272;5.136;2023-09-19T04:52:42;100727.19;;;14.65;92.62
64200;BME280;50516;52.272;5.136;2023-09-19T04:55:10;100731.97;;;14.59;92.41
64200;BME280;50516;52.272;5.136;2023-09-19T04:57:50;100738.03;;;14.62;93.05
64200;BME280;50516;52.272;5.136;2023-09-19T05:00:20;100738.34;;;14.55;93.01
64200;BME280;50516;52.272;5.136;2023-09-19T05:02:50;100747.03;;;14.67;92.36
64200;BME280;50516;52.272;5.136;2023-09-19T05:05:17;100742.09;;;14.64;92.88
64200;BME280;50516;52.272;5.136;2023-09-19T05:07:44;100745.72;;;14.65;92.61
64200;BME280;50516;52.272;5.136;2023-09-19T05:10:10;100738.84;;;14.62;93.40
64200;BME280;50516;52.272;5.136;2023-09-19T05:12:37;100736.59;;;14.64;92.99
64200;BME280;50516;52.272;5.136;2023-09-19T05:15:06;100749.78;;;14.67;93.01
64200;BME280;50516;52.272;5.136;2023-09-19T05:17:32;100748.59;;;14.73;92.68
64200;BME280;50516;52.272;5.136;2023-09-19T05:19:58;100751.34;;;14.73;92.67
64200;BME280;50516;52.272;5.136;2023-09-19T05:22:26;100744.78;;;14.69;93.15
64200;BME280;50516;52.272;5.136;2023-09-19T05:24:54;100747.69;;;14.59;93.06
64200;BME280;50516;52.272;5.136;2023-09-19T05:27:20;100733.97;;;14.54;93.28
64200;BME280;50516;52.272;5.136;2023-09-19T05:29:46;100736.72;;;14.54;93.76
64200;BME280;50516;52.272;5.136;2023-09-19T05:32:12;100742.63;;;14.66;93.75
64200;BME280;50516;52.272;5.136;2023-09-19T05:34:38;100743.16;;;14.68;93.31
64200;BME280;50516;52.272;5.136;2023-09-19T05:37:04;100753.06;;;14.69;93.22
64200;BME280;50516;52.272;5.136;2023-09-19T05:39:30;100751.97;;;14.70;93.16
64200;BME280;50516;52.272;5.136;2023-09-19T05:41:55;100761.00;;;14.90;93.21
64200;BME280;50516;52.272;5.136;2023-09-19T05:44:22;100752.13;;;14.93;92.73
64200;BME280;50516;52.272;5.136;2023-09-19T05:46:47;100770.34;;;14.94;93.05
64200;BME280;50516;52.272;5.136;2023-09-19T05:49:13;100764.00;;;14.93;92.56
64200;BME280;50516;52.272;5.136;2023-09-19T05:51:39;100768.59;;;14.98;92.50
64200;BME280;50516;52.272;5.136;2023-09-19T05:54:04;100773.19;;;14.89;92.39
64200;BME280;50516;52.272;5.136;2023-09-19T05:56:30;100771.13;;;14.81;93.35
64200;BME280;50516;52.272;5.136;2023-09-19T05:58:56;100777.94;;;14.69;92.79
64200;BME280;50516;52.272;5.136;2023-09-19T06:01:21;100766.88;;;14.69;93.18
64200;BME280;50516;52.272;5.136;2023-09-19T06:03:47;100770.25;;;14.66;93.29
64200;BME280;50516;52.272;5.136;2023-09-19T06:06:13;100770.81;;;14.82;93.09
64200;BME280;50516;52.272;5.136;2023-09-19T06:08:38;100764.78;;;14.80;92.88
64200;BME280;50516;52.272;5.136;2023-09-19T06:11:04;100774.28;;;14.74;93.57
64200;BME280;50516;52.272;5.136;2023-09-19T06:13:34;100773.16;;;14.75;93.01
64200;BME280;50516;52.272;5.136;2023-09-19T06:15:59;100783.31;;;14.79;93.07
64200;BME280;50516;52.272;5.136;2023-09-19T06:18:29;100766.13;;;14.83;92.31
64200;BME280;50516;52.272;5.136;2023-09-19T06:20:58;100755.94;;;14.97;92.26
64200;BME280;50516;52.272;5.136;2023-09-19T06:23:24;100773.56;;;15.15;91.52
64200;BME280;50516;52.272;5.136;2023-09-19T06:25:52;100762.94;;;15.36;90.78
64200;BME280;50516;52.272;5.136;2023-09-19T06:28:18;100758.44;;;15.54;89.74
64200;BME280;50516;52.272;5.136;2023-09-19T06:30:49;100752.09;;;15.54;90.27
64200;BME280;50516;52.272;5.136;2023-09-19T06:33:14;100758.84;;;15.47;89.70
64200;BME280;50516;52.272;5.136;2023-09-19T06:35:40;100763.22;;;15.48;90.25
64200;BME280;50516;52.272;5.136;2023-09-19T06:38:07;100766.31;;;15.61;90.10
64200;BME280;50516;52.272;5.136;2023-09-19T06:40:33;100766.84;;;15.49;90.47
64200;BME280;50516;52.272;5.136;2023-09-19T06:42:59;100778.91;;;15.53;90.36
64200;BME280;50516;52.272;5.136;2023-09-19T06:45:27;100770.00;;;15.56;90.52
64200;BME280;50516;52.272;5.136;2023-09-19T06:47:53;100779.53;;;15.64;90.66
64200;BME280;50516;52.272;5.136;2023-09-19T06:50:23;100777.78;;;15.68;90.67
64200;BME280;50516;52.272;5.136;2023-09-19T06:52:49;100770.13;;;15.65;90.37
64200;BME280;50516;52.272;5.136;2023-09-19T06:55:17;100769.00;;;15.52;90.63
64200;BME280;50516;52.272;5.136;2023-09-19T06:57:44;100780.66;;;15.63;91.16
64200;BME280;50516;52.272;5.136;2023-09-19T07:00:10;100767.66;;;15.77;91.10
64200;BME280;50516;52.272;5.136;2023-09-19T07:03:00;100769.81;;;15.66;90.50
64200;BME280;50516;52.272;5.136;2023-09-19T07:05:30;100767.44;;;15.74;91.41
64200;BME280;50516;52.272;5.136;2023-09-19T07:07:56;100768.25;;;15.88;90.76
64200;BME280;50516;52.272;5.136;2023-09-19T07:10:24;100777.31;;;15.80;90.73
64200;BME280;50516;52.272;5.136;2023-09-19T07:13:03;100779.53;;;16.05;91.21
64200;BME280;50516;52.272;5.136;2023-09-19T07:15:31;100788.13;;;16.04;90.14
64200;BME280;50516;52.272;5.136;2023-09-19T07:17:58;100796.56;;;15.99;90.44
64200;BME280;50516;52.272;5.136;2023-09-19T07:20:26;100793.56;;;15.95;90.55
64200;BME280;50516;52.272;5.136;2023-09-19T07:22:52;100803.72;;;16.00;91.35
64200;BME280;50516;52.272;5.136;2023-09-19T07:25:17;100801.00;;;16.22;90.84
64200;BME280;50516;52.272;5.136;2023-09-19T07:27:43;100800.19;;;16.22;91.00
64200;BME280;50516;52.272;5.136;2023-09-19T07:30:09;100797.50;;;16.31;90.45
64200;BME280;50516;52.272;5.136;2023-09-19T07:32:37;100799.84;;;16.37;90.10
64200;BME280;50516;52.272;5.136;2023-09-19T07:35:03;100805.00;;;16.30;90.04
64200;BME280;50516;52.272;5.136;2023-09-19T07:37:30;100809.59;;;16.35;89.73
64200;BME280;50516;52.272;5.136;2023-09-19T07:39:59;100803.44;;;16.38;89.92
64200;BME280;50516;52.272;5.136;2023-09-19T07:42:24;100812.75;;;16.42;89.42
64200;BME280;50516;52.272;5.136;2023-09-19T07:44:51;100801.34;;;16.43;88.75
64200;BME280;50516;52.272;5.136;2023-09-19T07:47:16;100810.72;;;16.70;88.73
64200;BME280;50516;52.272;5.136;2023-09-19T07:49:42;100815.88;;;16.63;88.45
64200;BME280;50516;52.272;5.136;2023-09-19T07:52:08;100815.31;;;16.75;88.19
64200;BME280;50516;52.272;5.136;2023-09-19T07:54:34;100815.47;;;16.92;87.80
64200;BME280;50516;52.272;5.136;2023-09-19T07:57:01;100816.19;;;17.07;87.87
64200;BME280;50516;52.272;5.136;2023-09-19T07:59:26;100812.69;;;17.15;86.86
64200;BME280;50516;52.272;5.136;2023-09-19T08:01:51;100821.84;;;17.24;86.79
64200;BME280;50516;52.272;5.136;2023-09-19T08:04:17;100814.53;;;17.28;85.71
64200;BME280;50516;52.272;5.136;2023-09-19T08:06:46;100809.72;;;17.43;86.09
64200;BME280;50516;52.272;5.136;2023-09-19T08:09:11;100811.03;;;17.45;84.61
64200;BME280;50516;52.272;5.136;2023-09-19T08:11:39;100809.34;;;17.36;85.64
64200;BME280;50516;52.272;5.136;2023-09-19T08:14:04;100804.47;;;17.41;85.32
64200;BME280;50516;52.272;5.136;2023-09-19T08:16:31;100808.63;;;17.21;85.85
64200;BME280;50516;52.272;5.136;2023-09-19T08:18:58;100805.22;;;17.24;86.30
64200;BME280;50516;52.272;5.136;2023-09-19T08:21:24;100808.19;;;17.28;85.71
64200;BME280;50516;52.272;5.136;2023-09-19T08:23:50;100804.22;;;17.20;85.98
64200;BME280;50516;52.272;5.136;2023-09-19T08:26:15;100803.84;;;17.44;85.39
64200;BME280;50516;52.272;5.136;2023-09-19T08:28:40;100793.13;;;17.60;85.20
64200;BME280;50516;52.272;5.136;2023-09-19T08:31:07;100796.03;;;17.55;85.03
64200;BME280;50516;52.272;5.136;2023-09-19T08:33:35;100791.63;;;17.54;84.50
64200;BME280;50516;52.272;5.136;2023-09-19T08:36:04;100795.41;;;17.58;84.74
64200;BME280;50516;52.272;5.136;2023-09-19T08:38:34;100783.88;;;17.74;85.01
64200;BME280;50516;52.272;5.136;2023-09-19T08:41:00;100791.97;;;17.93;84.21
64200;BME280;50516;52.272;5.136;2023-09-19T08:43:26;100790.63;;;17.90;83.21
64200;BME280;50516;52.272;5.136;2023-09-19T08:45:56;100790.63;;;17.90;83.47
64200;BME280;50516;52.272;5.136;2023-09-19T08:48:26;100800.38;;;17.79;82.38
64200;BME280;50516;52.272;5.136;2023-09-19T08:51:00;100795.56;;;18.11;82.20
64200;BME280;50516;52.272;5.136;2023-09-19T08:53:51;100795.44;;;18.33;81.29
64200;BME280;50516;52.272;5.136;2023-09-19T08:56:17;100802.31;;;18.45;81.27
64200;BME280;50516;52.272;5.136;2023-09-19T08:59:10;100810.13;;;18.77;81.39
64200;BME280;50516;52.272;5.136;2023-09-19T09:01:37;100812.44;;;18.67;81.00
64200;BME280;50516;52.272;5.136;2023-09-19T09:04:08;100805.41;;;18.52;81.06
64200;BME280;50516;52.272;5.136;2023-09-19T09:06:38;100794.63;;;18.41;80.41
64200;BME280;50516;52.272;5.136;2023-09-19T09:09:04;100800.00;;;18.29;81.17
64200;BME280;50516;52.272;5.136;2023-09-19T09:11:32;100795.09;;;18.43;81.13
64200;BME280;50516;52.272;5.136;2023-09-19T09:13:58;100797.72;;;18.40;80.63
64200;BME280;50516;52.272;5.136;2023-09-19T09:16:23;100795.75;;;18.23;81.08
64200;BME280;50516;52.272;5.136;2023-09-19T09:18:51;100788.69;;;17.99;81.34
64200;BME280;50516;52.272;5.136;2023-09-19T09:21:19;100794.94;;;18.14;81.52
64200;BME280;50516;52.272;5.136;2023-09-19T09:23:47;100791.31;;;18.13;81.95
64200;BME280;50516;52.272;5.136;2023-09-19T09:26:12;100786.59;;;18.31;80.27
64200;BME280;50516;52.272;5.136;2023-09-19T09:28:45;100785.94;;;18.34;80.11
64200;BME280;50516;52.272;5.136;2023-09-19T09:31:24;100780.88;;;18.28;80.16
64200;BME280;50516;52.272;5.136;2023-09-19T09:33:56;100785.91;;;18.08;79.61
64200;BME280;50516;52.272;5.136;2023-09-19T09:36:39;100789.69;;;17.63;80.73
64200;BME280;50516;52.272;5.136;2023-09-19T09:39:06;100785.56;;;17.52;82.46
64200;BME280;50516;52.272;5.136;2023-09-19T09:41:49;100790.94;;;17.40;81.84
64200;BME280;50516;52.272;5.136;2023-09-19T09:44:16;100793.56;;;17.45;82.88
64200;BME280;50516;52.272;5.136;2023-09-19T09:46:47;100787.97;;;17.85;81.94
64200;BME280;50516;52.272;5.136;2023-09-19T09:49:24;100784.44;;;17.93;80.78
64200;BME280;50516;52.272;5.136;2023-09-19T09:52:00;100778.00;;;17.75;81.21
64200;BME280;50516;52.272;5.136;2023-09-19T09:54:30;100778.31;;;17.74;82.04
64200;BME280;50516;52.272;5.136;2023-09-19T09:57:08;100778.06;;;18.01;80.66
64200;BME280;50516;52.272;5.136;2023-09-19T10:02:13;100773.69;;;18.27;79.56
64200;BME280;50516;52.272;5.136;2023-09-19T10:04:39;100779.75;;;18.46;79.76
64200;BME280;50516;52.272;5.136;2023-09-19T10:07:30;100785.47;;;18.50;78.49
64200;BME280;50516;52.272;5.136;2023-09-19T10:10:02;100771.56;;;18.50;78.58
64200;BME280;50516;52.272;5.136;2023-09-19T10:12:48;100757.81;;;18.62;77.90
64200;BME280;50516;52.272;5.136;2023-09-19T10:15:19;100757.78;;;18.79;76.96
64200;BME280;50516;52.272;5.136;2023-09-19T10:17:51;100759.41;;;18.80;76.55
64200;BME280;50516;52.272;5.136;2023-09-19T10:20:19;100755.81;;;18.97;76.72
64200;BME280;50516;52.272;5.136;2023-09-19T10:23:08;100748.63;;;18.96;77.06
64200;BME280;50516;52.272;5.136;2023-09-19T10:25:39;100742.91;;;18.93;76.61
64200;BME280;50516;52.272;5.136;2023-09-19T10:28:09;100740.59;;;18.95;76.73
64200;BME280;50516;52.272;5.136;2023-09-19T10:30:42;100731.34;;;19.12;76.83
64200;BME280;50516;52.272;5.136;2023-09-19T10:33:11;100737.69;;;19.30;74.80
64200;BME280;50516;52.272;5.136;2023-09-19T10:35:39;100722.38;;;19.45;75.71
64200;BME280;50516;52.272;5.136;2023-09-19T10:38:10;100745.09;;;19.56;73.66
64200;BME280;50516;52.272;5.136;2023-09-19T10:40:37;100729.63;;;19.76;72.63
64200;BME280;50516;52.272;5.136;2023-09-19T10:43:05;100735.44;;;19.83;73.65
64200;BME280;50516;52.272;5.136;2023-09-19T10:45:33;100715.09;;;19.91;72.87
64200;BME280;50516;52.272;5.136;2023-09-19T10:47:59;100721.41;;;20.21;72.19
64200;BME280;50516;52.272;5.136;2023-09-19T10:50:27;100717.63;;;20.59;70.22
64200;BME280;50516;52.272;5.136;2023-09-19T10:53:02;100718.41;;;20.81;70.19
64200;BME280;50516;52.272;5.136;2023-09-19T10:55:31;100702.34;;;20.45;71.65
64200;BME280;50516;52.272;5.136;2023-09-19T10:57:58;100712.06;;;20.38;71.26
64200;BME280;50516;52.272;5.136;2023-09-19T11:01:08;100711.41;;;20.41;71.73
64200;BME280;50516;52.272;5.136;2023-09-19T11:03:38;100722.13;;;20.52;70.32
64200;BME280;50516;52.272;5.136;2023-09-19T11:06:18;100706.00;;;20.57;70.82
64200;BME280;50516;52.272;5.136;2023-09-19T11:08:52;100711.31;;;20.84;70.08
64200;BME280;50516;52.272;5.136;2023-09-19T11:14:39;100698.31;;;20.54;70.00
64200;BME280;50516;52.272;5.136;2023-09-19T11:30:35;100689.28;;;19.73;71.14
64200;BME280;50516;52.272;5.136;2023-09-19T11:33:30;100681.50;;;20.09;70.20
64200;BME280;50516;52.272;5.136;2023-09-19T11:36:14;100690.00;;;20.12;71.53
64200;BME280;50516;52.272;5.136;2023-09-19T11:43:53;100684.50;;;20.03;70.71
64200;BME280;50516;52.272;5.136;2023-09-19T11:46:24;100684.34;;;20.21;70.39
64200;BME280;50516;52.272;5.136;2023-09-19T11:48:50;100682.16;;;20.27;69.66
64200;BME280;50516;52.272;5.136;2023-09-19T11:53:47;100691.13;;;19.69;72.09
64200;BME280;50516;52.272;5.136;2023-09-19T11:56:17;100690.13;;;19.44;73.10
64200;BME280;50516;52.272;5.136;2023-09-19T11:58:48;100700.53;;;19.26;73.53
64200;BME280;50516;52.272;5.136;2023-09-19T12:01:25;100692.06;;;19.13;74.22
64200;BME280;50516;52.272;5.136;2023-09-19T12:03:56;100677.88;;;19.36;74.72
64200;BME280;50516;52.272;5.136;2023-09-19T12:06:23;100680.56;;;19.24;73.30
64200;BME280;50516;52.272;5.136;2023-09-19T12:08:49;100693.03;;;19.18;74.07
64200;BME280;50516;52.272;5.136;2023-09-19T12:11:16;100695.34;;;19.15;74.25
64200;BME280;50516;52.272;5.136;2023-09-19T12:13:46;100685.75;;;18.95;74.41
64200;BME280;50516;52.272;5.136;2023-09-19T12:16:15;100682.03;;;18.91;75.27
64200;BME280;50516;52.272;5.136;2023-09-19T12:18:42;100686.28;;;18.89;75.18
64200;BME280;50516;52.272;5.136;2023-09-19T12:21:21;100688.75;;;18.82;75.04
64200;BME280;50516;52.272;5.136;2023-09-19T12:26:42;100690.91;;;18.67;77.41
64200;BME280;50516;52.272;5.136;2023-09-19T12:29:19;100691.34;;;18.78;75.66
64200;BME280;50516;52.272;5.136;2023-09-19T12:31:52;100696.44;;;18.85;76.75
64200;BME280;50516;52.272;5.136;2023-09-19T12:34:28;100698.16;;;19.07;75.88
64200;BME280;50516;52.272;5.136;2023-09-19T12:37:13;100692.84;;;19.23;75.03
64200;BME280;50516;52.272;5.136;2023-09-19T12:39:48;100687.19;;;19.40;75.18
64200;BME280;50516;52.272;5.136;2023-09-19T12:42:18;100697.63;;;19.73;74.47
64200;BME280;50516;52.272;5.136;2023-09-19T12:44:47;100683.72;;;20.15;72.67
64200;BME280;50516;52.272;5.136;2023-09-19T12:47:18;100686.13;;;20.25;72.48
64200;BME280;50516;52.272;5.136;2023-09-19T12:50:14;100687.00;;;20.17;72.02
64200;BME280;50516;52.272;5.136;2023-09-19T12:52:48;100688.03;;;20.13;72.99
64200;BME280;50516;52.272;5.136;2023-09-19T12:55:21;100688.84;;;19.92;73.16
64200;BME280;50516;52.272;5.136;2023-09-19T13:00:31;100690.25;;;19.47;75.67
64200;BME280;50516;52.272;5.136;2023-09-19T13:08:18;100677.66;;;19.20;75.90
64200;BME280;50516;52.272;5.136;2023-09-19T13:11:10;100692.91;;;19.14;77.06
64200;BME280;50516;52.272;5.136;2023-09-19T13:13:48;100688.44;;;19.22;77.63
64200;BME280;50516;52.272;5.136;2023-09-19T13:16:17;100685.47;;;19.27;76.60
64200;BME280;50516;52.272;5.136;2023-09-19T13:18:52;100687.31;;;19.52;75.75
64200;BME280;50516;52.272;5.136;2023-09-19T13:21:30;100681.19;;;19.59;75.64
64200;BME280;50516;52.272;5.136;2023-09-19T13:24:24;100668.22;;;19.63;74.65
64200;BME280;50516;52.272;5.136;2023-09-19T13:26:53;100673.41;;;19.44;75.94
64200;BME280;50516;52.272;5.136;2023-09-19T13:29:18;100665.13;;;19.35;76.65
64200;BME280;50516;52.272;5.136;2023-09-19T13:31:47;100678.25;;;19.26;76.72
64200;BME280;50516;52.272;5.136;2023-09-19T13:34:13;100702.25;;;19.09;77.45
64200;BME280;50516;52.272;5.136;2023-09-19T13:36:41;100682.50;;;18.93;78.10
64200;BME280;50516;52.272;5.136;2023-09-19T13:39:07;100690.06;;;18.84;79.11
64200;BME280;50516;52.272;5.136;2023-09-19T13:41:35;100690.25;;;18.70;80.33